createdAt,value
2022-10-31T00:01:31.542Z,3.00
2022-10-31T00:03:58.482Z,3.53
2022-10-31T00:06:26.007Z,3.95
2022-10-31T00:09:01.732Z,3.85
2022-10-31T00:11:29.083Z,3.58
2022-10-31T00:13:56.094Z,3.20
2022-10-31T00:16:25.346Z,3.58
2022-10-31T00:18:53.976Z,3.55
2022-10-31T00:21:21.119Z,3.65
2022-10-31T00:23:48.425Z,3.95
2022-10-31T00:26:15.717Z,4.50
2022-10-31T00:28:42.953Z,3.58
2022-10-31T00:31:12.091Z,3.67
2022-10-31T00:33:40.482Z,3.70
2022-10-31T00:36:08.517Z,3.88
2022-10-31T00:38:35.427Z,4.28
2022-10-31T00:41:02.875Z,3.70
2022-10-31T00:43:29.859Z,4.00
2022-10-31T00:45:56.836Z,3.13
2022-10-31T00:48:25.181Z,3.85
2022-10-31T00:50:53.661Z,3.03
2022-10-31T00:53:20.670Z,3.88
2022-10-31T00:55:47.766Z,3.45
2022-10-31T01:00:57.414Z,3.13
2022-10-31T01:03:27.006Z,3.63
2022-10-31T01:06:07.691Z,3.08
2022-10-31T01:08:36.187Z,3.85
2022-10-31T01:11:13.632Z,3.75
2022-10-31T01:13:42.046Z,3.30
2022-10-31T01:16:11.801Z,3.72
2022-10-31T01:18:38.990Z,3.42
2022-10-31T01:21:12.291Z,3.50
2022-10-31T01:23:39.781Z,3.80
2022-10-31T01:26:14.849Z,3.53
2022-10-31T01:28:57.201Z,3.22
2022-10-31T01:31:29.688Z,3.53
2022-10-31T01:33:56.770Z,3.67
2022-10-31T01:36:35.082Z,3.72
2022-10-31T01:39:06.265Z,3.15
2022-10-31T01:41:37.380Z,3.70
2022-10-31T01:44:24.630Z,3.40
2022-10-31T01:47:15.324Z,3.78
2022-10-31T01:50:01.007Z,3.33
2022-10-31T01:52:38.650Z,3.78
2022-10-31T01:55:36.572Z,3.58
2022-10-31T01:58:08.393Z,3.67
2022-10-31T02:00:35.521Z,3.80
2022-10-31T02:03:03.108Z,3.55
2022-10-31T02:05:31.662Z,3.70
2022-10-31T02:08:12.285Z,3.63
2022-10-31T02:10:39.509Z,3.60
2022-10-31T02:13:09.803Z,3.42
2022-10-31T02:15:46.718Z,3.65
2022-10-31T02:18:14.030Z,3.72
2022-10-31T02:21:16.775Z,3.40
2022-10-31T02:24:18.094Z,3.45
2022-10-31T02:27:27.310Z,3.03
2022-10-31T02:30:26.855Z,2.95
2022-10-31T02:33:11.652Z,3.38
2022-10-31T02:35:41.338Z,3.60
2022-10-31T02:41:30.079Z,3.65
2022-10-31T02:44:09.783Z,4.40
2022-10-31T02:46:58.925Z,3.17
2022-10-31T02:49:42.117Z,3.35
2022-10-31T02:52:27.561Z,3.72
2022-10-31T02:55:33.367Z,4.00
2022-10-31T02:58:21.553Z,4.18
2022-10-31T03:00:59.999Z,3.60
2022-10-31T03:03:39.813Z,3.00
2022-10-31T03:06:38.834Z,4.05
2022-10-31T03:09:19.782Z,3.42
2022-10-31T03:12:21.851Z,2.90
2022-10-31T03:15:01.412Z,3.30
2022-10-31T03:17:43.911Z,3.92
2022-10-31T03:20:12.179Z,3.35
2022-10-31T03:22:42.873Z,3.67
2022-10-31T03:25:10.785Z,3.30
2022-10-31T03:27:40.812Z,3.83
2022-10-31T03:30:08.966Z,3.85
2022-10-31T03:32:55.647Z,3.88
2022-10-31T03:37:54.482Z,3.70
2022-10-31T03:40:46.769Z,3.50
2022-10-31T03:44:07.067Z,3.10
2022-10-31T03:47:06.265Z,3.75
2022-10-31T03:49:43.245Z,4.60
2022-10-31T03:52:54.015Z,4.03
2022-10-31T03:56:06.876Z,4.03
2022-10-31T03:58:50.275Z,3.70
2022-10-31T04:01:48.921Z,3.90
2022-10-31T04:04:26.141Z,3.13
2022-10-31T04:07:02.710Z,4.20
2022-10-31T04:09:37.131Z,3.17
2022-10-31T04:12:17.904Z,3.30
2022-10-31T04:15:02.766Z,3.80
2022-10-31T04:17:36.155Z,3.92
2022-10-31T04:20:13.859Z,3.38
2022-10-31T04:22:53.706Z,3.53
2022-10-31T04:25:33.545Z,4.15
2022-10-31T04:28:06.478Z,3.13
2022-10-31T04:30:38.228Z,3.67
2022-10-31T04:33:10.982Z,3.42
2022-10-31T04:35:53.786Z,3.50
2022-10-31T04:38:31.630Z,3.45
2022-10-31T04:41:08.267Z,3.40
2022-10-31T04:43:57.576Z,4.07
2022-10-31T04:46:37.172Z,3.90
2022-10-31T04:49:16.710Z,3.60
2022-10-31T04:51:47.953Z,3.83
2022-10-31T04:54:21.463Z,3.75
2022-10-31T04:57:09.526Z,3.60
2022-10-31T04:59:41.366Z,3.90
2022-10-31T05:02:16.804Z,4.28
2022-10-31T05:04:50.985Z,3.45
2022-10-31T05:07:22.689Z,3.55
2022-10-31T05:10:06.254Z,3.92
2022-10-31T05:12:37.518Z,3.50
2022-10-31T05:15:30.506Z,3.33
2022-10-31T05:18:39.236Z,3.55
2022-10-31T05:21:48.475Z,3.35
2022-10-31T05:24:19.414Z,3.78
2022-10-31T05:26:55.275Z,3.35
2022-10-31T05:29:23.955Z,3.78
2022-10-31T05:31:52.746Z,4.13
2022-10-31T05:37:33.221Z,3.78
2022-10-31T05:40:06.995Z,3.17
2022-10-31T05:42:39.959Z,4.05
2022-10-31T05:48:00.552Z,3.97
2022-10-31T05:50:48.775Z,4.22
2022-10-31T05:53:17.496Z,3.80
2022-10-31T05:55:47.787Z,3.58
2022-10-31T05:58:23.064Z,4.00
2022-10-31T06:00:59.591Z,4.10
2022-10-31T06:03:27.569Z,3.95
2022-10-31T06:05:58.913Z,3.58
2022-10-31T06:08:34.979Z,3.58
2022-10-31T06:11:06.670Z,3.60
2022-10-31T06:13:54.767Z,4.03
2022-10-31T06:16:26.735Z,3.92
2022-10-31T06:18:57.673Z,3.55
2022-10-31T06:21:31.055Z,3.47
2022-10-31T06:24:02.206Z,3.08
2022-10-31T06:27:01.951Z,3.92
2022-10-31T06:29:29.924Z,3.47
2022-10-31T06:32:05.023Z,4.25
2022-10-31T06:34:44.571Z,3.80
2022-10-31T06:37:13.388Z,3.65
2022-10-31T06:39:44.497Z,4.15
2022-10-31T06:42:16.468Z,4.63
2022-10-31T06:44:44.957Z,4.65
2022-10-31T06:48:15.587Z,3.78
2022-10-31T06:50:47.734Z,4.72
2022-10-31T06:53:20.694Z,5.25
2022-10-31T06:55:51.482Z,4.53
2022-10-31T06:58:19.149Z,7.13
2022-10-31T07:00:48.227Z,8.23
2022-10-31T07:03:17.248Z,7.57
2022-10-31T07:05:46.723Z,6.85
2022-10-31T07:08:16.538Z,6.45
2022-10-31T07:10:51.975Z,4.68
2022-10-31T07:13:25.513Z,5.30
2022-10-31T07:16:04.334Z,5.95
2022-10-31T07:18:35.685Z,5.32
2022-10-31T07:21:04.028Z,5.47
2022-10-31T07:23:32.815Z,5.35
2022-10-31T07:26:23.145Z,5.88
2022-10-31T07:28:50.912Z,5.15
2022-10-31T07:31:22.397Z,5.78
2022-10-31T07:33:54.783Z,4.63
2022-10-31T07:36:45.331Z,4.63
2022-10-31T07:39:14.494Z,4.85
2022-10-31T07:41:45.678Z,4.30
2022-10-31T07:44:19.143Z,4.65
2022-10-31T07:47:05.265Z,4.82
2022-10-31T07:49:56.344Z,4.53
2022-10-31T07:53:05.683Z,4.00
2022-10-31T07:55:59.762Z,4.60
2022-10-31T07:58:30.911Z,4.10
2022-10-31T08:01:00.575Z,4.38
2022-10-31T08:03:37.502Z,4.53
2022-10-31T08:06:26.231Z,4.22
2022-10-31T08:09:13.605Z,4.13
2022-10-31T08:11:47.971Z,4.50
2022-10-31T08:14:17.507Z,3.97
2022-10-31T08:16:45.466Z,3.90
2022-10-31T08:19:14.357Z,4.60
2022-10-31T08:21:42.328Z,4.43
2022-10-31T08:24:10.808Z,3.88
2022-10-31T08:26:40.217Z,4.15
2022-10-31T08:29:11.247Z,3.60
2022-10-31T08:31:42.897Z,4.28
2022-10-31T08:34:31.464Z,4.22
2022-10-31T08:37:21.466Z,4.05
2022-10-31T08:39:56.581Z,4.30
2022-10-31T08:42:24.658Z,3.63
2022-10-31T08:44:53.041Z,3.55
2022-10-31T08:47:29.205Z,4.00
2022-10-31T08:49:57.898Z,3.92
2022-10-31T08:52:51.134Z,4.00
2022-10-31T08:55:16.869Z,3.88
2022-10-31T08:57:47.604Z,4.18
2022-10-31T09:00:15.886Z,4.28
2022-10-31T09:02:43.624Z,4.03
2022-10-31T09:05:11.593Z,4.10
2022-10-31T09:07:39.504Z,3.50
2022-10-31T09:10:10.114Z,3.50
2022-10-31T09:12:39.281Z,3.63
2022-10-31T09:15:10.496Z,3.72
2022-10-31T09:17:52.177Z,4.13
2022-10-31T09:20:32.184Z,3.78
2022-10-31T09:23:29.574Z,3.53
2022-10-31T09:26:05.938Z,3.50
2022-10-31T09:28:43.494Z,3.63
2022-10-31T09:31:14.065Z,4.30
2022-10-31T09:33:50.637Z,3.58
2022-10-31T09:36:47.653Z,3.28
2022-10-31T09:39:20.149Z,4.13
2022-10-31T09:41:56.278Z,3.90
2022-10-31T09:44:45.974Z,3.83
2022-10-31T09:48:17.088Z,4.07
2022-10-31T09:51:53.341Z,3.53
2022-10-31T09:54:41.971Z,4.28
2022-10-31T09:57:15.874Z,3.70
2022-10-31T09:59:52.555Z,3.92
2022-10-31T10:02:39.014Z,4.35
2022-10-31T10:05:13.372Z,3.75
2022-10-31T10:08:11.840Z,4.07
2022-10-31T10:11:25.255Z,3.67
2022-10-31T10:14:12.575Z,3.88
2022-10-31T10:17:07.090Z,4.03
2022-10-31T10:20:19.802Z,4.18
2022-10-31T10:23:09.666Z,4.30
2022-10-31T10:25:41.988Z,4.63
2022-10-31T10:28:24.663Z,3.47
2022-10-31T10:31:01.094Z,4.25
2022-10-31T10:33:38.057Z,4.25
2022-10-31T10:36:19.766Z,4.03
2022-10-31T10:39:02.643Z,3.88
2022-10-31T10:41:34.693Z,4.68
2022-10-31T10:44:03.296Z,3.92
2022-10-31T10:46:58.389Z,4.10
2022-10-31T10:49:45.704Z,4.20
2022-10-31T10:52:54.521Z,4.57
2022-10-31T10:55:34.666Z,4.03
2022-10-31T10:58:12.154Z,4.18
2022-10-31T11:00:48.221Z,4.43
2022-10-31T11:03:20.179Z,4.25
2022-10-31T11:06:02.997Z,4.18
2022-10-31T11:08:33.114Z,3.72
2022-10-31T11:11:20.846Z,4.88
2022-10-31T11:13:59.657Z,4.13
2022-10-31T11:16:41.012Z,4.28
2022-10-31T11:19:18.037Z,3.33
2022-10-31T11:21:51.217Z,4.38
2022-10-31T11:24:23.608Z,3.83
2022-10-31T11:27:15.093Z,4.00
2022-10-31T11:29:43.720Z,4.30
2022-10-31T11:32:31.023Z,4.03
2022-10-31T11:35:11.768Z,4.72
2022-10-31T11:37:45.632Z,3.60
2022-10-31T11:40:25.803Z,3.53
2022-10-31T11:43:01.274Z,3.20
2022-10-31T11:45:40.022Z,4.03
2022-10-31T11:48:19.432Z,3.83
2022-10-31T11:50:59.997Z,3.72
2022-10-31T11:53:35.934Z,4.17
2022-10-31T11:56:18.357Z,4.57
2022-10-31T11:59:05.498Z,4.10
2022-10-31T12:01:35.235Z,4.00
2022-10-31T12:04:14.185Z,4.32
2022-10-31T12:06:47.409Z,4.40
2022-10-31T12:09:35.664Z,4.78
2022-10-31T12:12:12.352Z,4.18
2022-10-31T12:15:05.791Z,3.92
2022-10-31T12:20:48.964Z,4.15
2022-10-31T12:23:32.518Z,3.75
2022-10-31T12:26:23.170Z,4.25
2022-10-31T12:28:58.745Z,4.07
2022-10-31T12:31:54.744Z,4.28
2022-10-31T12:34:49.284Z,3.97
2022-10-31T12:37:46.181Z,3.72
2022-10-31T12:40:29.506Z,3.67
2022-10-31T12:43:22.905Z,4.10
2022-10-31T12:46:02.655Z,3.70
2022-10-31T12:49:10.424Z,4.30
2022-10-31T12:52:14.161Z,4.30
2022-10-31T12:54:59.593Z,4.22
2022-10-31T12:57:45.736Z,3.75
2022-10-31T13:00:21.149Z,3.88
2022-10-31T13:03:25.399Z,3.70
2022-10-31T13:06:05.827Z,3.33
2022-10-31T13:09:09.159Z,3.78
2022-10-31T13:12:10.295Z,3.67
2022-10-31T13:14:53.300Z,3.78
2022-10-31T13:17:39.184Z,3.90
2022-10-31T13:20:31.114Z,3.97
2022-10-31T13:23:49.710Z,4.10
2022-10-31T13:26:53.409Z,4.07
2022-10-31T13:29:35.272Z,3.80
2022-10-31T13:32:09.432Z,4.00
2022-10-31T13:34:58.785Z,3.92
2022-10-31T13:37:53.706Z,3.45
2022-10-31T13:40:41.799Z,3.72
2022-10-31T13:43:24.383Z,3.70
2022-10-31T13:45:57.914Z,3.33
2022-10-31T13:48:47.824Z,3.70
2022-10-31T13:51:32.075Z,3.55
2022-10-31T13:54:08.205Z,3.95
2022-10-31T13:56:50.715Z,3.38
2022-10-31T13:59:27.385Z,3.45
2022-10-31T14:01:55.513Z,3.08
2022-10-31T14:04:32.437Z,3.75
2022-10-31T14:07:17.878Z,3.80
2022-10-31T14:10:04.793Z,3.50
2022-10-31T14:12:43.507Z,3.60
2022-10-31T14:15:28.519Z,3.60
2022-10-31T14:18:38.484Z,3.50
2022-10-31T14:21:34.192Z,3.10
2022-10-31T14:24:05.849Z,3.53
2022-10-31T14:29:19.400Z,4.15
2022-10-31T14:31:54.568Z,3.15
2022-10-31T14:34:45.309Z,3.88
2022-10-31T14:37:43.554Z,3.63
2022-10-31T14:41:09.172Z,3.15
2022-10-31T14:43:57.277Z,3.28
2022-10-31T14:46:52.588Z,2.95
2022-10-31T14:50:05.516Z,3.13
2022-10-31T14:52:40.137Z,3.22
2022-10-31T14:55:13.730Z,3.10
2022-10-31T14:57:57.587Z,3.42
2022-10-31T15:00:28.522Z,3.80
2022-10-31T15:03:19.423Z,4.00
2022-10-31T15:05:55.787Z,3.17
2022-10-31T15:08:35.068Z,3.55
2022-10-31T15:11:26.635Z,3.65
2022-10-31T15:14:01.900Z,3.50
2022-10-31T15:16:35.730Z,3.42
2022-10-31T15:19:09.739Z,3.45
2022-10-31T15:21:53.011Z,3.13
2022-10-31T15:24:26.770Z,4.47
2022-10-31T15:26:59.685Z,4.20
2022-10-31T15:29:32.026Z,3.40
2022-10-31T15:32:24.164Z,3.72
2022-10-31T15:37:28.462Z,3.33
2022-10-31T15:39:56.569Z,3.38
2022-10-31T15:42:32.386Z,3.38
2022-10-31T15:45:11.652Z,3.88
2022-10-31T15:47:40.852Z,4.32
2022-10-31T15:50:27.951Z,6.60
2022-10-31T15:52:59.346Z,7.75
2022-10-31T15:55:37.386Z,8.57
2022-10-31T15:58:16.146Z,8.75
2022-10-31T16:01:08.355Z,7.60
2022-10-31T16:03:42.526Z,7.68
2022-10-31T16:06:22.821Z,6.88
2022-10-31T16:08:53.963Z,7.63
2022-10-31T16:11:33.707Z,7.60
2022-10-31T16:14:11.442Z,8.43
2022-10-31T16:16:47.960Z,14.30
2022-10-31T16:19:24.486Z,14.13
2022-10-31T16:22:06.786Z,11.90
2022-10-31T16:24:56.981Z,16.98
2022-10-31T16:27:30.436Z,15.60
2022-10-31T16:30:05.984Z,13.90
2022-10-31T16:32:53.417Z,13.20
2022-10-31T16:35:40.465Z,10.02
2022-10-31T16:38:10.951Z,9.30
2022-10-31T16:40:41.212Z,7.95
2022-10-31T16:43:16.046Z,7.68
2022-10-31T16:45:47.061Z,6.53
2022-10-31T16:48:20.920Z,5.68
2022-10-31T16:50:50.189Z,5.63
2022-10-31T16:53:19.269Z,5.45
2022-10-31T16:55:59.647Z,5.85
2022-10-31T16:58:35.868Z,5.18
2022-10-31T17:01:10.393Z,6.55
2022-10-31T17:03:42.493Z,6.28
2022-10-31T17:06:25.254Z,6.07
2022-10-31T17:08:57.073Z,6.32
2022-10-31T17:11:27.498Z,5.82
2022-10-31T17:13:57.680Z,7.55
2022-10-31T17:16:26.304Z,7.20
2022-10-31T17:18:55.331Z,7.57
2022-10-31T17:21:28.542Z,7.28
2022-10-31T17:23:57.027Z,6.95
2022-10-31T17:26:31.144Z,7.55
2022-10-31T17:29:04.335Z,6.90
2022-10-31T17:31:37.220Z,7.50
2022-10-31T17:34:09.180Z,6.60
2022-10-31T17:36:37.864Z,6.90
2022-10-31T17:39:07.880Z,7.32
2022-10-31T17:41:35.918Z,6.60
2022-10-31T17:44:04.367Z,6.45
2022-10-31T17:46:38.591Z,6.55
2022-10-31T17:49:08.814Z,7.45
2022-10-31T17:51:36.783Z,6.72
2022-10-31T17:54:09.158Z,6.22
2022-10-31T17:56:38.924Z,6.40
2022-10-31T17:59:13.789Z,6.65
2022-10-31T18:01:42.206Z,7.05
2022-10-31T18:04:11.480Z,9.07
2022-10-31T18:06:43.748Z,9.13
2022-10-31T18:09:13.051Z,8.23
2022-10-31T18:11:41.741Z,8.02
2022-10-31T18:14:11.352Z,7.70
2022-10-31T18:16:43.010Z,7.15
2022-10-31T18:21:51.320Z,6.80
2022-10-31T18:24:22.456Z,6.18
2022-10-31T18:26:56.501Z,7.50
2022-10-31T18:29:27.339Z,6.95
2022-10-31T18:32:09.046Z,6.17
2022-10-31T18:34:37.697Z,6.30
2022-10-31T18:37:06.508Z,7.28
2022-10-31T18:39:34.740Z,6.47
2022-10-31T18:42:02.929Z,6.47
2022-10-31T18:44:31.092Z,7.15
2022-10-31T18:46:59.528Z,6.95
2022-10-31T18:49:35.428Z,6.90
2022-10-31T18:52:12.406Z,7.25
2022-10-31T18:54:42.628Z,7.15
2022-10-31T18:57:11.779Z,7.40
2022-10-31T18:59:40.063Z,6.55
2022-10-31T19:02:08.196Z,6.65
2022-10-31T19:04:36.870Z,6.75
2022-10-31T19:07:04.993Z,7.68
2022-10-31T19:09:43.356Z,6.60
2022-10-31T19:12:15.471Z,7.00
2022-10-31T19:14:45.528Z,7.63
2022-10-31T19:17:16.701Z,7.60
2022-10-31T19:20:03.175Z,7.88
2022-10-31T19:22:33.112Z,8.40
2022-10-31T19:25:10.433Z,6.60
2022-10-31T19:27:40.711Z,7.28
2022-10-31T19:30:12.353Z,7.35
2022-10-31T19:32:41.041Z,8.27
2022-10-31T19:35:09.829Z,7.50
2022-10-31T19:37:42.711Z,6.97
2022-10-31T19:40:13.051Z,7.00
2022-10-31T19:42:41.645Z,7.35
2022-10-31T19:45:10.104Z,8.38
2022-10-31T19:47:40.938Z,8.35
2022-10-31T19:50:12.699Z,8.43
2022-10-31T19:52:40.994Z,8.13
2022-10-31T19:55:10.641Z,7.57
2022-10-31T19:58:00.966Z,8.90
2022-10-31T20:00:27.837Z,7.13
2022-10-31T20:02:58.872Z,8.45
2022-10-31T20:05:28.193Z,8.13
2022-10-31T20:07:58.002Z,7.80
2022-10-31T20:10:26.603Z,7.70
2022-10-31T20:12:54.803Z,8.85
2022-10-31T20:15:23.136Z,8.75
2022-10-31T20:17:56.994Z,10.10
2022-10-31T20:20:27.455Z,9.25
2022-10-31T20:22:58.091Z,10.27
2022-10-31T20:25:26.450Z,12.35
2022-10-31T20:27:57.038Z,12.07
2022-10-31T20:30:27.672Z,13.88
2022-10-31T20:32:58.366Z,14.80
2022-10-31T20:35:33.950Z,15.40
2022-10-31T20:38:06.790Z,16.17
2022-10-31T20:40:37.096Z,16.67
2022-10-31T20:43:08.466Z,13.40
2022-10-31T20:45:42.175Z,15.95
2022-10-31T20:48:10.132Z,16.58
2022-10-31T20:50:39.991Z,18.45
2022-10-31T20:53:08.310Z,18.35
2022-10-31T20:55:38.540Z,17.52
2022-10-31T20:58:08.358Z,18.05
2022-10-31T21:00:41.388Z,16.23
2022-10-31T21:03:09.317Z,15.70
2022-10-31T21:05:38.810Z,17.55
2022-10-31T21:08:07.552Z,16.95
2022-10-31T21:10:40.901Z,18.95
2022-10-31T21:13:08.761Z,17.30
2022-10-31T21:15:37.497Z,20.23
2022-10-31T21:18:05.839Z,17.92
2022-10-31T21:20:34.359Z,17.25
2022-10-31T21:23:02.495Z,18.80
2022-10-31T21:25:33.748Z,18.57
2022-10-31T21:28:02.390Z,22.77
2022-10-31T21:30:30.713Z,19.75
2022-10-31T21:32:58.750Z,25.73
2022-10-31T21:35:26.923Z,16.75
2022-10-31T21:37:58.706Z,17.65
2022-10-31T21:40:31.657Z,16.42
2022-10-31T21:43:00.037Z,16.05
2022-10-31T21:45:28.172Z,17.48
2022-10-31T21:47:56.224Z,17.67
2022-10-31T21:50:24.670Z,16.90
2022-10-31T21:52:52.964Z,14.07
2022-10-31T21:55:20.996Z,14.23
2022-10-31T21:57:51.165Z,16.58
2022-10-31T22:00:19.211Z,14.90
2022-10-31T22:02:49.431Z,16.48
2022-10-31T22:05:17.918Z,15.25
2022-10-31T22:07:45.881Z,19.30
2022-10-31T22:10:13.764Z,15.98
2022-10-31T22:12:41.946Z,15.27
2022-10-31T22:15:18.031Z,17.00
2022-10-31T22:17:48.048Z,19.73
2022-10-31T22:20:18.585Z,15.45
2022-10-31T22:22:49.275Z,15.18
2022-10-31T22:25:23.904Z,14.30
2022-10-31T22:27:52.825Z,15.55
2022-10-31T22:30:20.945Z,15.18
2022-10-31T22:32:52.932Z,14.07
2022-10-31T22:35:20.901Z,14.82
2022-10-31T22:37:53.612Z,13.55
2022-10-31T22:40:27.058Z,14.10
2022-10-31T22:42:59.655Z,15.63
2022-10-31T22:48:03.994Z,17.67
2022-10-31T22:50:36.809Z,13.98
2022-10-31T22:53:07.504Z,15.95
2022-10-31T22:55:35.859Z,15.75
2022-10-31T22:58:09.008Z,14.03
2022-10-31T23:00:39.735Z,17.80
2022-10-31T23:03:07.653Z,17.60
2022-10-31T23:05:35.542Z,13.82
2022-10-31T23:08:06.764Z,14.70
2022-10-31T23:10:35.244Z,15.85
2022-10-31T23:13:24.377Z,15.20
2022-10-31T23:15:58.034Z,18.88
2022-10-31T23:18:48.361Z,14.18
2022-10-31T23:21:40.192Z,13.65
2022-10-31T23:24:18.620Z,14.68
2022-10-31T23:27:13.710Z,15.55
2022-10-31T23:29:58.602Z,12.93
2022-10-31T23:35:07.075Z,12.52
2022-10-31T23:37:39.549Z,15.52
2022-10-31T23:40:13.075Z,13.65
2022-10-31T23:42:43.401Z,12.23
2022-10-31T23:45:16.373Z,13.75
2022-10-31T23:47:48.630Z,11.48
2022-10-31T23:50:16.796Z,13.90
2022-10-31T23:52:50.016Z,12.63
2022-10-31T23:55:22.505Z,12.57
2022-10-31T23:57:59.675Z,15.45
